sensor_id;sensor_type;location;lat;lon;timestamp;pressure;altitude;pressure_sealevel;temperature;humidity
14067;BME280;7108;42.684;23.350;2023-04-16T00:00:12;94800.41;;;13.35;100.00
14067;BME280;7108;42.684;23.350;2023-04-16T00:02:38;94796.53;;;13.32;100.00
14067;BME280;7108;42.684;23.350;2023-04-16T00:05:03;94795.38;;;13.30;100.00
14067;BME280;7108;42.684;23.350;2023-04-16T00:07:29;94795.34;;;13.23;100.00
14067;BME280;7108;42.684;23.350;2023-04-16T00:09:54;94796.91;;;13.24;100.00
14067;BME280;7108;42.684;23.350;2023-04-16T00:12:22;94799.22;;;13.25;100.00
14067;BME280;7108;42.684;23.350;2023-04-16T00:14:47;94793.81;;;13.18;100.00
14067;BME280;7108;42.684;23.350;2023-04-16T00:17:13;94799.59;;;13.20;100.00
14067;BME280;7108;42.684;23.350;2023-04-16T00:19:39;94791.50;;;13.17;100.00
14067;BME280;7108;42.684;23.350;2023-04-16T00:22:04;94794.97;;;13.14;100.00
14067;BME280;7108;42.684;23.350;2023-04-16T00:24:30;94792.63;;;13.09;100.00
14067;BME280;7108;42.684;23.350;2023-04-16T00:26:55;94796.88;;;12.96;100.00
14067;BME280;7108;42.684;23.350;2023-04-16T00:29:21;94805.34;;;12.95;100.00
14067;BME280;7108;42.684;23.350;2023-04-16T00:31:46;94785.66;;;12.94;100.00
14067;BME280;7108;42.684;23.350;2023-04-16T00:34:12;94787.56;;;12.90;100.00
14067;BME280;7108;42.684;23.350;2023-04-16T00:36:37;94799.16;;;12.91;100.00
14067;BME280;7108;42.684;23.350;2023-04-16T00:39:03;94794.09;;;12.86;100.00
14067;BME280;7108;42.684;23.350;2023-04-16T00:41:28;94792.91;;;12.83;100.00
14067;BME280;7108;42.684;23.350;2023-04-16T00:43:54;94794.09;;;12.86;100.00
14067;BME280;7108;42.684;23.350;2023-04-16T00:46:20;94790.59;;;12.78;100.00
14067;BME280;7108;42.684;23.350;2023-04-16T00:48:47;94792.47;;;12.67;100.00
14067;BME280;7108;42.684;23.350;2023-04-16T00:51:14;94792.44;;;12.57;100.00
14067;BME280;7108;42.684;23.350;2023-04-16T00:53:40;94791.28;;;12.54;100.00
14067;BME280;7108;42.684;23.350;2023-04-16T00:56:06;94791.63;;;12.53;100.00
14067;BME280;7108;42.684;23.350;2023-04-16T00:58:33;94794.34;;;12.53;100.00
14067;BME280;7108;42.684;23.350;2023-04-16T01:01:00;94790.13;;;12.52;100.00
14067;BME280;7108;42.684;23.350;2023-04-16T01:03:38;94791.25;;;12.47;100.00
14067;BME280;7108;42.684;23.350;2023-04-16T01:06:04;94790.84;;;12.45;100.00
14067;BME280;7108;42.684;23.350;2023-04-16T01:08:30;94792.00;;;12.48;100.00
14067;BME280;7108;42.684;23.350;2023-04-16T01:10:55;94796.22;;;12.42;100.00
14067;BME280;7108;42.684;23.350;2023-04-16T01:13:21;94792.34;;;12.36;100.00
14067;BME280;7108;42.684;23.350;2023-04-16T01:15:46;94791.94;;;12.34;100.00
14067;BME280;7108;42.684;23.350;2023-04-16T01:18:16;94787.31;;;12.31;100.00
14067;BME280;7108;42.684;23.350;2023-04-16T01:20:42;94790.00;;;12.31;100.00
14067;BME280;7108;42.684;23.350;2023-04-16T01:23:07;94790.75;;;12.28;100.00
14067;BME280;7108;42.684;23.350;2023-04-16T01:25:33;94789.19;;;12.20;100.00
14067;BME280;7108;42.684;23.350;2023-04-16T01:27:58;94779.47;;;12.12;100.00
14067;BME280;7108;42.684;23.350;2023-04-16T01:30:24;94777.19;;;12.14;100.00
14067;BME280;7108;42.684;23.350;2023-04-16T01:32:49;94781.44;;;12.15;100.00
14067;BME280;7108;42.684;23.350;2023-04-16T01:35:15;94778.28;;;12.06;100.00
14067;BME280;7108;42.684;23.350;2023-04-16T01:37:42;94777.50;;;12.06;100.00
14067;BME280;7108;42.684;23.350;2023-04-16T01:40:08;94773.28;;;12.08;100.00
14067;BME280;7108;42.684;23.350;2023-04-16T01:42:33;94767.09;;;12.04;100.00
14067;BME280;7108;42.684;23.350;2023-04-16T01:44:59;94769.44;;;12.09;100.00
14067;BME280;7108;42.684;23.350;2023-04-16T01:47:24;94774.06;;;12.12;100.00
14067;BME280;7108;42.684;23.350;2023-04-16T01:49:50;94766.69;;;12.02;100.00
14067;BME280;7108;42.684;23.350;2023-04-16T01:52:16;94770.94;;;12.03;100.00
14067;BME280;7108;42.684;23.350;2023-04-16T01:54:41;94762.06;;;11.99;100.00
14067;BME280;7108;42.684;23.350;2023-04-16T01:57:06;94767.81;;;11.98;100.00
14067;BME280;7108;42.684;23.350;2023-04-16T01:59:32;94769.38;;;11.99;100.00
14067;BME280;7108;42.684;23.350;2023-04-16T02:02:09;94767.44;;;11.96;100.00
14067;BME280;7108;42.684;23.350;2023-04-16T02:04:43;94777.44;;;11.92;100.00
14067;BME280;7108;42.684;23.350;2023-04-16T02:07:12;94763.09;;;11.81;100.00
14067;BME280;7108;42.684;23.350;2023-04-16T02:09:38;94767.34;;;11.85;100.00
14067;BME280;7108;42.684;23.350;2023-04-16T02:12:04;94761.53;;;11.80;100.00
14067;BME280;7108;42.684;23.350;2023-04-16T02:14:31;94762.72;;;11.82;100.00
14067;BME280;7108;42.684;23.350;2023-04-16T02:16:57;94766.53;;;11.78;100.00
14067;BME280;7108;42.684;23.350;2023-04-16T02:19:23;94768.88;;;11.79;100.00
14067;BME280;7108;42.684;23.350;2023-04-16T02:21:50;94765.78;;;11.81;100.00
14067;BME280;7108;42.684;23.350;2023-04-16T02:24:15;94760.00;;;11.79;100.00
14067;BME280;7108;42.684;23.350;2023-04-16T02:26:41;94758.78;;;11.73;100.00
14067;BME280;7108;42.684;23.350;2023-04-16T02:29:06;94756.56;;;11.82;100.00
14067;BME280;7108;42.684;23.350;2023-04-16T02:31:32;94753.84;;;11.85;100.00
14067;BME280;7108;42.684;23.350;2023-04-16T02:33:57;94760.84;;;11.90;100.00
14067;BME280;7108;42.684;23.350;2023-04-16T02:36:23;94759.66;;;11.87;100.00
14067;BME280;7108;42.684;23.350;2023-04-16T02:38:48;94752.31;;;11.88;100.00
14067;BME280;7108;42.684;23.350;2023-04-16T02:41:14;94753.50;;;11.90;100.00
14067;BME280;7108;42.684;23.350;2023-04-16T02:43:39;94747.34;;;11.90;100.00
14067;BME280;7108;42.684;23.350;2023-04-16T02:46:05;94756.22;;;11.94;100.00
14067;BME280;7108;42.684;23.350;2023-04-16T02:48:30;94754.31;;;11.94;100.00
14067;BME280;7108;42.684;23.350;2023-04-16T02:50:56;94754.31;;;11.98;100.00
14067;BME280;7108;42.684;23.350;2023-04-16T02:53:21;94753.13;;;11.95;100.00
14067;BME280;7108;42.684;23.350;2023-04-16T02:55:51;94742.69;;;11.87;100.00
14067;BME280;7108;42.684;23.350;2023-04-16T02:58:20;94745.41;;;11.87;100.00
14067;BME280;7108;42.684;23.350;2023-04-16T03:00:46;94742.25;;;11.81;100.00
14067;BME280;7108;42.684;23.350;2023-04-16T03:03:12;94741.50;;;11.81;100.00
14067;BME280;7108;42.684;23.350;2023-04-16T03:05:37;94745.38;;;11.83;100.00
14067;BME280;7108;42.684;23.350;2023-04-16T03:08:03;94741.19;;;11.89;100.00
14067;BME280;7108;42.684;23.350;2023-04-16T03:10:29;94749.22;;;11.82;100.00
14067;BME280;7108;42.684;23.350;2023-04-16T03:12:55;94741.88;;;11.79;100.00
14067;BME280;7108;42.684;23.350;2023-04-16T03:15:20;94753.41;;;11.77;100.00
14067;BME280;7108;42.684;23.350;2023-04-16T03:17:46;94754.59;;;11.79;100.00
14067;BME280;7108;42.684;23.350;2023-04-16T03:20:11;94765.38;;;11.79;100.00
14067;BME280;7108;42.684;23.350;2023-04-16T03:22:40;94765.00;;;11.80;100.00
14067;BME280;7108;42.684;23.350;2023-04-16T03:25:08;94760.00;;;11.82;100.00
14067;BME280;7108;42.684;23.350;2023-04-16T03:27:34;94750.78;;;11.87;100.00
14067;BME280;7108;42.684;23.350;2023-04-16T03:30:00;94753.13;;;11.88;100.00
14067;BME280;7108;42.684;23.350;2023-04-16T03:32:25;94757.34;;;11.86;100.00
14067;BME280;7108;42.684;23.350;2023-04-16T03:34:51;94753.84;;;11.82;100.00
14067;BME280;7108;42.684;23.350;2023-04-16T03:37:16;94755.38;;;11.83;100.00
14067;BME280;7108;42.684;23.350;2023-04-16T03:39:42;94759.25;;;11.85;100.00
14067;BME280;7108;42.684;23.350;2023-04-16T03:42:07;94765.81;;;11.88;100.00
14067;BME280;7108;42.684;23.350;2023-04-16T03:44:33;94767.78;;;11.91;100.00
14067;BME280;7108;42.684;23.350;2023-04-16T03:46:58;94767.75;;;11.87;100.00
14067;BME280;7108;42.684;23.350;2023-04-16T03:49:24;94764.28;;;11.83;100.00
14067;BME280;7108;42.684;23.350;2023-04-16T03:51:50;94768.13;;;11.86;100.00
14067;BME280;7108;42.684;23.350;2023-04-16T03:54:15;94760.03;;;11.86;100.00
14067;BME280;7108;42.684;23.350;2023-04-16T03:56:41;94771.13;;;11.74;100.00
14067;BME280;7108;42.684;23.350;2023-04-16T03:59:06;94770.31;;;11.67;100.00
14067;BME280;7108;42.684;23.350;2023-04-16T04:01:32;94767.56;;;11.60;100.00
14067;BME280;7108;42.684;23.350;2023-04-16T04:03:57;94774.94;;;11.66;100.00
14067;BME280;7108;42.684;23.350;2023-04-16T04:06:22;94773.78;;;11.67;100.00
14067;BME280;7108;42.684;23.350;2023-04-16T04:08:48;94766.06;;;11.66;100.00
14067;BME280;7108;42.684;23.350;2023-04-16T04:11:13;94776.06;;;11.62;100.00
14067;BME280;7108;42.684;23.350;2023-04-16T04:13:39;94788.47;;;11.73;100.00
14067;BME280;7108;42.684;23.350;2023-04-16T04:16:05;94787.28;;;11.71;100.00
14067;BME280;7108;42.684;23.350;2023-04-16T04:18:30;94777.22;;;11.64;100.00
14067;BME280;7108;42.684;23.350;2023-04-16T04:20:56;94787.72;;;11.73;100.00
14067;BME280;7108;42.684;23.350;2023-04-16T04:23:22;94792.31;;;11.72;100.00
14067;BME280;7108;42.684;23.350;2023-04-16T04:25:47;94795.88;;;11.79;100.00
14067;BME280;7108;42.684;23.350;2023-04-16T04:28:13;94781.16;;;11.74;100.00
14067;BME280;7108;42.684;23.350;2023-04-16T04:30:38;94802.03;;;11.80;100.00
14067;BME280;7108;42.684;23.350;2023-04-16T04:33:04;94795.47;;;11.77;100.00
14067;BME280;7108;42.684;23.350;2023-04-16T04:35:29;94805.50;;;11.80;100.00
14067;BME280;7108;42.684;23.350;2023-04-16T04:37:55;94808.19;;;11.80;100.00
14067;BME280;7108;42.684;23.350;2023-04-16T04:40:20;94795.47;;;11.81;100.00
14067;BME280;7108;42.684;23.350;2023-04-16T04:42:46;94798.56;;;11.83;100.00
14067;BME280;7108;42.684;23.350;2023-04-16T04:45:11;94806.34;;;11.91;100.00
14067;BME280;7108;42.684;23.350;2023-04-16T04:47:37;94810.22;;;11.94;100.00
14067;BME280;7108;42.684;23.350;2023-04-16T04:50:02;94810.63;;;11.96;100.00
14067;BME280;7108;42.684;23.350;2023-04-16T04:52:28;94811.00;;;11.94;100.00
14067;BME280;7108;42.684;23.350;2023-04-16T04:54:53;94804.44;;;11.92;100.00
14067;BME280;7108;42.684;23.350;2023-04-16T04:57:19;94808.69;;;11.96;100.00
14067;BME280;7108;42.684;23.350;2023-04-16T04:59:44;94806.00;;;11.96;100.00
14067;BME280;7108;42.684;23.350;2023-04-16T05:02:10;94812.63;;;12.06;100.00
14067;BME280;7108;42.684;23.350;2023-04-16T05:04:35;94805.28;;;12.03;100.00
14067;BME280;7108;42.684;23.350;2023-04-16T05:07:01;94803.34;;;12.03;100.00
14067;BME280;7108;42.684;23.350;2023-04-16T05:09:26;94801.81;;;12.06;100.00
14067;BME280;7108;42.684;23.350;2023-04-16T05:11:52;94809.94;;;12.09;100.00
14067;BME280;7108;42.684;23.350;2023-04-16T05:14:18;94800.34;;;12.15;100.00
14067;BME280;7108;42.684;23.350;2023-04-16T05:16:43;94801.06;;;12.09;100.00
14067;BME280;7108;42.684;23.350;2023-04-16T05:19:08;94797.22;;;12.13;100.00
14067;BME280;7108;42.684;23.350;2023-04-16T05:21:34;94800.72;;;12.17;100.00
14067;BME280;7108;42.684;23.350;2023-04-16T05:23:59;94797.22;;;12.13;100.00
14067;BME280;7108;42.684;23.350;2023-04-16T05:26:25;94794.94;;;12.15;100.00
14067;BME280;7108;42.684;23.350;2023-04-16T05:28:50;94796.09;;;12.21;100.00
14067;BME280;7108;42.684;23.350;2023-04-16T05:31:16;94800.00;;;12.27;100.00
14067;BME280;7108;42.684;23.350;2023-04-16T05:33:41;94800.75;;;12.21;100.00
14067;BME280;7108;42.684;23.350;2023-04-16T05:36:06;94803.84;;;12.19;100.00
14067;BME280;7108;42.684;23.350;2023-04-16T05:38:32;94803.84;;;12.23;100.00
14067;BME280;7108;42.684;23.350;2023-04-16T05:40:57;94803.47;;;12.24;100.00
14067;BME280;7108;42.684;23.350;2023-04-16T05:43:23;94794.19;;;12.22;100.00
14067;BME280;7108;42.684;23.350;2023-04-16T05:45:48;94799.22;;;12.23;100.00
14067;BME280;7108;42.684;23.350;2023-04-16T05:48:14;94803.44;;;12.21;100.00
14067;BME280;7108;42.684;23.350;2023-04-16T05:50:40;94802.31;;;12.25;100.00
14067;BME280;7108;42.684;23.350;2023-04-16T05:53:06;94792.66;;;12.24;100.00
14067;BME280;7108;42.684;23.350;2023-04-16T05:55:33;94805.38;;;12.20;100.00
14067;BME280;7108;42.684;23.350;2023-04-16T05:58:00;94807.19;;;12.02;100.00
14067;BME280;7108;42.684;23.350;2023-04-16T06:00:28;94809.88;;;12.02;100.00
14067;BME280;7108;42.684;23.350;2023-04-16T06:02:54;94809.19;;;12.12;100.00
14067;BME280;7108;42.684;23.350;2023-04-16T06:05:19;94810.31;;;12.11;100.00
14067;BME280;7108;42.684;23.350;2023-04-16T06:07:44;94815.41;;;12.20;100.00
14067;BME280;7108;42.684;23.350;2023-04-16T06:10:10;94801.06;;;12.09;100.00
14067;BME280;7108;42.684;23.350;2023-04-16T06:12:35;94808.03;;;12.13;100.00
14067;BME280;7108;42.684;23.350;2023-04-16T06:15:01;94802.28;;;12.18;100.00
14067;BME280;7108;42.684;23.350;2023-04-16T06:17:27;94811.97;;;12.26;100.00
14067;BME280;7108;42.684;23.350;2023-04-16T06:19:53;94802.00;;;12.34;100.00
14067;BME280;7108;42.684;23.350;2023-04-16T06:22:18;94804.72;;;12.44;100.00
14067;BME280;7108;42.684;23.350;2023-04-16T06:24:44;94803.25;;;12.57;100.00
14067;BME280;7108;42.684;23.350;2023-04-16T06:27:09;94802.47;;;12.49;100.00
14067;BME280;7108;42.684;23.350;2023-04-16T06:29:35;94799.41;;;12.61;100.00
14067;BME280;7108;42.684;23.350;2023-04-16T06:32:01;94798.69;;;12.78;100.00
14067;BME280;7108;42.684;23.350;2023-04-16T06:34:27;94792.91;;;12.73;100.00
14067;BME280;7108;42.684;23.350;2023-04-16T06:36:53;94796.41;;;12.80;100.00
14067;BME280;7108;42.684;23.350;2023-04-16T06:39:19;94793.66;;;12.73;100.00
14067;BME280;7108;42.684;23.350;2023-04-16T06:41:47;94798.72;;;12.82;100.00
14067;BME280;7108;42.684;23.350;2023-04-16T06:44:12;94799.09;;;12.84;100.00
14067;BME280;7108;42.684;23.350;2023-04-16T06:46:38;94801.88;;;12.94;100.00
14067;BME280;7108;42.684;23.350;2023-04-16T06:49:03;94799.97;;;13.02;100.00
14067;BME280;7108;42.684;23.350;2023-04-16T06:51:28;94801.94;;;13.22;100.00
14067;BME280;7108;42.684;23.350;2023-04-16T06:53:54;94796.94;;;13.34;100.00
14067;BME280;7108;42.684;23.350;2023-04-16T06:56:20;94804.31;;;13.48;100.00
14067;BME280;7108;42.684;23.350;2023-04-16T06:58:45;94792.31;;;13.45;100.00
14067;BME280;7108;42.684;23.350;2023-04-16T07:01:11;94793.06;;;13.56;100.00
14067;BME280;7108;42.684;23.350;2023-04-16T07:03:36;94787.31;;;13.58;100.00
14067;BME280;7108;42.684;23.350;2023-04-16T07:06:02;94790.00;;;13.65;100.00
14067;BME280;7108;42.684;23.350;2023-04-16T07:08:27;94778.00;;;13.62;100.00
14067;BME280;7108;42.684;23.350;2023-04-16T07:10:53;94789.59;;;13.70;100.00
14067;BME280;7108;42.684;23.350;2023-04-16T07:13:19;94795.78;;;13.80;100.00
14067;BME280;7108;42.684;23.350;2023-04-16T07:15:45;94792.69;;;13.92;100.00
14067;BME280;7108;42.684;23.350;2023-04-16T07:18:10;94794.63;;;14.02;100.00
14067;BME280;7108;42.684;23.350;2023-04-16T07:20:35;94795.00;;;14.04;100.00
14067;BME280;7108;42.684;23.350;2023-04-16T07:23:03;94792.69;;;14.10;100.00
14067;BME280;7108;42.684;23.350;2023-04-16T07:25:29;94799.28;;;14.16;100.00
14067;BME280;7108;42.684;23.350;2023-04-16T07:27:54;94783.00;;;14.19;100.00
14067;BME280;7108;42.684;23.350;2023-04-16T07:30:20;94779.50;;;14.29;100.00
14067;BME280;7108;42.684;23.350;2023-04-16T07:32:45;94792.28;;;14.25;100.00
14067;BME280;7108;42.684;23.350;2023-04-16T07:35:11;94782.56;;;14.38;100.00
14067;BME280;7108;42.684;23.350;2023-04-16T07:37:36;94779.09;;;14.41;100.00
14067;BME280;7108;42.684;23.350;2023-04-16T07:40:01;94783.31;;;14.49;100.00
14067;BME280;7108;42.684;23.350;2023-04-16T07:42:28;94780.59;;;14.45;100.00
14067;BME280;7108;42.684;23.350;2023-04-16T07:44:54;94784.47;;;14.48;100.00
14067;BME280;7108;42.684;23.350;2023-04-16T07:47:19;94777.13;;;14.48;100.00
14067;BME280;7108;42.684;23.350;2023-04-16T07:49:47;94788.34;;;14.47;100.00
14067;BME280;7108;42.684;23.350;2023-04-16T07:52:13;94779.06;;;14.48;100.00
14067;BME280;7108;42.684;23.350;2023-04-16T07:54:42;94787.88;;;14.73;100.00
14067;BME280;7108;42.684;23.350;2023-04-16T07:57:07;94789.81;;;14.76;100.00
14067;BME280;7108;42.684;23.350;2023-04-16T07:59:32;94785.16;;;14.73;100.00
14067;BME280;7108;42.684;23.350;2023-04-16T08:01:58;94786.34;;;14.72;100.00
14067;BME280;7108;42.684;23.350;2023-04-16T08:04:23;94780.16;;;14.64;100.00
14067;BME280;7108;42.684;23.350;2023-04-16T08:06:50;94785.19;;;14.69;100.00
14067;BME280;7108;42.684;23.350;2023-04-16T08:09:16;94775.81;;;14.88;100.00
14067;BME280;7108;42.684;23.350;2023-04-16T08:11:41;94779.16;;;15.12;100.00
14067;BME280;7108;42.684;23.350;2023-04-16T08:14:07;94773.63;;;15.33;100.00
14067;BME280;7108;42.684;23.350;2023-04-16T08:16:32;94772.34;;;15.52;100.00
14067;BME280;7108;42.684;23.350;2023-04-16T08:18:58;94766.53;;;15.46;100.00
14067;BME280;7108;42.684;23.350;2023-04-16T08:21:25;94762.91;;;15.67;97.90
14067;BME280;7108;42.684;23.350;2023-04-16T08:23:52;94768.06;;;15.98;100.00
14067;BME280;7108;42.684;23.350;2023-04-16T08:26:17;94766.25;;;16.28;95.10
14067;BME280;7108;42.684;23.350;2023-04-16T08:28:43;94751.78;;;16.38;93.40
14067;BME280;7108;42.684;23.350;2023-04-16T08:31:08;94758.31;;;16.44;90.20
14067;BME280;7108;42.684;23.350;2023-04-16T08:33:34;94757.88;;;16.49;89.76
14067;BME280;7108;42.684;23.350;2023-04-16T08:35:59;94750.59;;;16.39;89.93
14067;BME280;7108;42.684;23.350;2023-04-16T08:38:25;94756.03;;;16.39;87.54
14067;BME280;7108;42.684;23.350;2023-04-16T08:40:50;94745.63;;;16.31;85.64
14067;BME280;7108;42.684;23.350;2023-04-16T08:43:17;94749.88;;;16.35;84.58
14067;BME280;7108;42.684;23.350;2023-04-16T08:45:44;94743.59;;;16.38;86.99
14067;BME280;7108;42.684;23.350;2023-04-16T08:48:11;94747.31;;;16.54;87.44
14067;BME280;7108;42.684;23.350;2023-04-16T08:50:37;94745.34;;;16.58;82.00
14067;BME280;7108;42.684;23.350;2023-04-16T08:53:04;94749.75;;;16.75;86.74
14067;BME280;7108;42.684;23.350;2023-04-16T08:55:44;94739.03;;;16.95;83.40
14067;BME280;7108;42.684;23.350;2023-04-16T08:58:17;94737.34;;;17.04;83.77
14067;BME280;7108;42.684;23.350;2023-04-16T09:00:43;94730.41;;;17.00;85.24
14067;BME280;7108;42.684;23.350;2023-04-16T09:03:11;94742.25;;;17.16;84.76
14067;BME280;7108;42.684;23.350;2023-04-16T09:05:37;94733.72;;;17.14;82.58
14067;BME280;7108;42.684;23.350;2023-04-16T09:08:04;94718.09;;;17.18;81.34
14067;BME280;7108;42.684;23.350;2023-04-16T09:10:30;94721.69;;;17.38;84.38
14067;BME280;7108;42.684;23.350;2023-04-16T09:12:56;94719.72;;;17.42;79.34
14067;BME280;7108;42.684;23.350;2023-04-16T09:15:22;94720.00;;;17.47;79.95
14067;BME280;7108;42.684;23.350;2023-04-16T09:17:49;94728.50;;;17.75;78.08
14067;BME280;7108;42.684;23.350;2023-04-16T09:20:15;94722.53;;;17.84;76.50
14067;BME280;7108;42.684;23.350;2023-04-16T09:22:40;94712.03;;;17.82;77.45
14067;BME280;7108;42.684;23.350;2023-04-16T09:25:08;94716.78;;;17.78;74.52
14067;BME280;7108;42.684;23.350;2023-04-16T09:27:34;94723.88;;;17.73;74.30
14067;BME280;7108;42.684;23.350;2023-04-16T09:30:00;94720.22;;;17.82;75.42
14067;BME280;7108;42.684;23.350;2023-04-16T09:32:27;94724.56;;;17.99;78.32
14067;BME280;7108;42.684;23.350;2023-04-16T09:35:01;94722.03;;;18.12;73.67
14067;BME280;7108;42.684;23.350;2023-04-16T09:37:28;94718.47;;;18.15;68.89
14067;BME280;7108;42.684;23.350;2023-04-16T09:39:59;94717.59;;;18.21;73.02
14067;BME280;7108;42.684;23.350;2023-04-16T09:42:30;94721.47;;;18.01;69.94
14067;BME280;7108;42.684;23.350;2023-04-16T09:44:57;94717.94;;;18.00;69.49
14067;BME280;7108;42.684;23.350;2023-04-16T09:47:24;94714.47;;;18.00;66.51
14067;BME280;7108;42.684;23.350;2023-04-16T09:49:51;94708.41;;;18.12;68.90
14067;BME280;7108;42.684;23.350;2023-04-16T09:52:21;94711.72;;;18.00;67.69
14067;BME280;7108;42.684;23.350;2023-04-16T09:54:53;94709.66;;;17.84;65.91
14067;BME280;7108;42.684;23.350;2023-04-16T09:57:23;94697.34;;;17.76;68.15
14067;BME280;7108;42.684;23.350;2023-04-16T09:59:53;94704.97;;;17.62;67.95
14067;BME280;7108;42.684;23.350;2023-04-16T10:02:26;94704.03;;;17.72;70.76
14067;BME280;7108;42.684;23.350;2023-04-16T10:04:53;94697.28;;;17.57;69.38
14067;BME280;7108;42.684;23.350;2023-04-16T10:07:19;94695.91;;;17.46;69.86
14067;BME280;7108;42.684;23.350;2023-04-16T10:09:48;94689.03;;;17.38;73.50
14067;BME280;7108;42.684;23.350;2023-04-16T10:12:14;94693.06;;;17.30;72.23
14067;BME280;7108;42.684;23.350;2023-04-16T10:14:41;94685.75;;;17.23;70.63
14067;BME280;7108;42.684;23.350;2023-04-16T10:17:10;94691.88;;;17.31;70.30
14067;BME280;7108;42.684;23.350;2023-04-16T10:19:35;94687.56;;;17.33;69.63
14067;BME280;7108;42.684;23.350;2023-04-16T10:22:01;94685.31;;;17.28;69.47
14067;BME280;7108;42.684;23.350;2023-04-16T10:24:29;94683.53;;;17.41;71.52
14067;BME280;7108;42.684;23.350;2023-04-16T10:26:55;94670.50;;;17.52;71.65
14067;BME280;7108;42.684;23.350;2023-04-16T10:29:21;94682.63;;;17.48;66.61
14067;BME280;7108;42.684;23.350;2023-04-16T10:31:48;94679.44;;;17.53;71.09
14067;BME280;7108;42.684;23.350;2023-04-16T10:34:14;94671.22;;;17.56;69.39
14067;BME280;7108;42.684;23.350;2023-04-16T10:36:41;94668.19;;;17.51;67.98
14067;BME280;7108;42.684;23.350;2023-04-16T10:39:11;94662.94;;;17.63;67.38
14067;BME280;7108;42.684;23.350;2023-04-16T10:41:37;94654.97;;;17.72;66.00
14067;BME280;7108;42.684;23.350;2023-04-16T10:44:07;94661.00;;;17.83;65.77
14067;BME280;7108;42.684;23.350;2023-04-16T10:46:41;94665.72;;;18.25;65.14
14067;BME280;7108;42.684;23.350;2023-04-16T10:56:44;94653.91;;;18.86;58.65
14067;BME280;7108;42.684;23.350;2023-04-16T10:59:10;94644.28;;;18.97;58.44
14067;BME280;7108;42.684;23.350;2023-04-16T11:01:40;94651.44;;;18.91;56.60
14067;BME280;7108;42.684;23.350;2023-04-16T11:07:03;94641.19;;;19.14;55.01
14067;BME280;7108;42.684;23.350;2023-04-16T11:09:53;94640.63;;;19.04;54.55
14067;BME280;7108;42.684;23.350;2023-04-16T11:14:59;94635.88;;;18.72;54.40
14067;BME280;7108;42.684;23.350;2023-04-16T11:17:43;94633.66;;;18.67;56.03
14067;BME280;7108;42.684;23.350;2023-04-16T11:20:18;94632.28;;;18.75;59.13
14067;BME280;7108;42.684;23.350;2023-04-16T11:22:44;94621.13;;;18.70;57.58
14067;BME280;7108;42.684;23.350;2023-04-16T11:25:10;94634.16;;;18.62;58.11
14067;BME280;7108;42.684;23.350;2023-04-16T11:27:36;94620.16;;;18.41;57.61
14067;BME280;7108;42.684;23.350;2023-04-16T11:30:03;94621.03;;;18.38;56.92
14067;BME280;7108;42.684;23.350;2023-04-16T11:32:33;94614.75;;;18.22;57.58
14067;BME280;7108;42.684;23.350;2023-04-16T11:35:01;94617.16;;;18.16;58.26
14067;BME280;7108;42.684;23.350;2023-04-16T11:37:33;94614.00;;;18.18;59.71
14067;BME280;7108;42.684;23.350;2023-04-16T11:39:58;94608.97;;;18.16;59.59
14067;BME280;7108;42.684;23.350;2023-04-16T11:42:25;94605.78;;;18.21;59.97
14067;BME280;7108;42.684;23.350;2023-04-16T11:44:55;94603.78;;;18.25;62.49
14067;BME280;7108;42.684;23.350;2023-04-16T11:47:22;94585.97;;;18.17;62.40
14067;BME280;7108;42.684;23.350;2023-04-16T11:49:48;94599.66;;;18.14;60.49
14067;BME280;7108;42.684;23.350;2023-04-16T11:52:27;94597.63;;;18.18;61.81
14067;BME280;7108;42.684;23.350;2023-04-16T11:54:52;94594.53;;;18.19;61.45
14067;BME280;7108;42.684;23.350;2023-04-16T11:57:27;94597.31;;;18.16;59.24
14067;BME280;7108;42.684;23.350;2023-04-16T11:59:54;94589.41;;;18.02;64.97
14067;BME280;7108;42.684;23.350;2023-04-16T12:02:43;94576.13;;;18.04;63.69
14067;BME280;7108;42.684;23.350;2023-04-16T12:05:35;94569.53;;;18.01;60.69
14067;BME280;7108;42.684;23.350;2023-04-16T12:08:07;94562.53;;;18.00;62.11
14067;BME280;7108;42.684;23.350;2023-04-16T12:10:35;94561.31;;;18.05;62.63
14067;BME280;7108;42.684;23.350;2023-04-16T12:13:14;94562.00;;;18.28;64.47
14067;BME280;7108;42.684;23.350;2023-04-16T12:18:10;94551.31;;;18.53;62.15
14067;BME280;7108;42.684;23.350;2023-04-16T12:20:39;94557.75;;;18.62;62.52
14067;BME280;7108;42.684;23.350;2023-04-16T12:23:08;94544.03;;;18.82;62.77
14067;BME280;7108;42.684;23.350;2023-04-16T12:25:34;94542.94;;;18.95;59.12
14067;BME280;7108;42.684;23.350;2023-04-16T12:28:00;94551.38;;;19.01;59.11
14067;BME280;7108;42.684;23.350;2023-04-16T12:30:26;94536.53;;;18.86;57.68
14067;BME280;7108;42.684;23.350;2023-04-16T12:33:14;94549.41;;;18.85;57.89
14067;BME280;7108;42.684;23.350;2023-04-16T12:35:40;94535.16;;;18.78;59.81
14067;BME280;7108;42.684;23.350;2023-04-16T12:38:07;94530.97;;;18.73;59.55
14067;BME280;7108;42.684;23.350;2023-04-16T12:40:33;94540.44;;;18.69;57.86
14067;BME280;7108;42.684;23.350;2023-04-16T12:43:00;94537.09;;;18.61;57.80
14067;BME280;7108;42.684;23.350;2023-04-16T12:45:26;94536.84;;;18.56;58.39
14067;BME280;7108;42.684;23.350;2023-04-16T12:47:52;94539.38;;;18.47;59.59
14067;BME280;7108;42.684;23.350;2023-04-16T12:50:17;94532.69;;;18.32;60.36
14067;BME280;7108;42.684;23.350;2023-04-16T12:52:43;94531.94;;;18.12;61.67
14067;BME280;7108;42.684;23.350;2023-04-16T12:55:08;94526.47;;;18.12;63.09
14067;BME280;7108;42.684;23.350;2023-04-16T12:57:34;94525.28;;;18.13;67.85
14067;BME280;7108;42.684;23.350;2023-04-16T13:00:00;94532.78;;;18.09;64.08
14067;BME280;7108;42.684;23.350;2023-04-16T13:02:26;94523.88;;;18.05;67.57
14067;BME280;7108;42.684;23.350;2023-04-16T13:04:52;94522.84;;;17.99;66.90